Luis Benítez

Olheiro - Independiente
19 Ago 2027
Quinta-feira
Processo

Personalidade

Adaptabilidade (10) Ambição (1) Controvérsia (14) Lealdade (12) Pressão (4) Profissionalismo (12) Espírito Esportivo (3) Temperamento (15)

Perfil

Estilo de Treinamento Democrático
Licença Continental A
Determinação 13
Gestão de Pessoas 8
Motivação 5
Disciplina 12
Satisfação no Trabalho
75%
Fadiga
0%
Função Olheiro
Salário 80.6K p/s
Contrato 14.03.2030

Desempenho

Comportamento Bom
Eficácia do Treinamento
41%
Desenvolvimento do Jogador
55%
Prevenção de Lesões
25%
Implementação Tática
70%

Eventos Recentes

Participou de uma reunião de recrutamento 14d atrás
Participou de uma reunião de recrutamento 21d atrás
Participou de uma reunião de recrutamento 28d atrás
Participou de uma reunião de recrutamento 35d atrás
Participou de uma reunião de recrutamento 42d atrás
Recomendou um alvo de transferência 42d atrás
Participou de uma reunião de recrutamento 49d atrás
Recomendou um alvo de transferência 49d atrás

Monitorando agora

115
Jogador Clube Status Habilidade Confiança Observado Última observação Último voto
Tahiel Peralta Huracán Perdido 115 / 121 72% 1 07.06.2027 Aprovar
Otávio Al-Qadisiyah Ativo 150 / 129 40% 4 01.06.2027 -
Caspar Jander Southampton Ativo 137 / 132 40% 4 01.06.2027 -
Trai Hume Sunderland Ativo 137 / 118 40% 1 28.05.2027 -
Israel Reyes CSKA Moscow Ativo 129 / 141 40% 6 22.05.2027 -
Mattia Viti Sampdoria Ativo 129 / 130 40% 1 22.05.2027 -
Christian Krasnodar Ativo 134 / 120 40% 7 20.05.2027 -
Christ Inao Oulaï Fiorentina Ativo 126 / 140 40% 2 20.05.2027 -
Rubens Dinamo Moscow Ativo 139 / 124 40% 2 06.05.2027 -
Facundo Bernal Betis Ativo 133 / 147 40% 2 06.05.2027 -
Thierry Rendall Correia Venezia Ativo 134 / 135 40% 2 05.05.2027 -
Gustavo Mantuan Zenit Ativo 143 / 124 40% 6 04.05.2027 -
Nicolò Savona Nottingham Forest Ativo 142 / 128 40% 2 03.05.2027 -
Nino Zenit Ativo 135 / 128 40% 2 01.05.2027 -
Robin Fellhauer FC Augsburg Ativo 144 / 144 40% 4 28.04.2027 -
Josh King Chelsea Ativo 136 / 139 40% 2 28.04.2027 -
Tormena Krasnodar Ativo 123 / 145 40% 2 26.04.2027 -
Sandi Lovrić Hellas Verona Ativo 140 / 119 40% 1 24.04.2027 -
Lucas Olaza Krasnodar Ativo 126 / 134 40% 1 22.04.2027 -
Alexandr Chernikov Krasnodar Ativo 128 / 135 40% 1 21.04.2027 -
Flynn Downes Southampton Ativo 127 / 142 40% 1 12.04.2027 -
Wendel Zenit Ativo 143 / 127 40% 1 03.04.2027 -
Yacine Adli Al-Shabab Ativo 146 / 141 40% 2 01.04.2027 -
Sergej Milinković-Savić Al-Hilal Ativo 164 / 157 40% 1 29.03.2027 -
Alexis Cuello San Lorenzo Ativo 127 / 132 40% 2 28.11.2026 -
Job Ochieng Real Sociedad Ativo 110 / 99 40% 1 28.11.2026 -
Enzo Avaro Odd Ativo 102 / 125 40% 2 26.11.2026 -
Agustín Módica Gimnasia y Esgrima Ativo 118 / 131 40% 3 25.11.2026 -
Fredrik Bjørkan Bodo/Glimt Ativo 138 / 141 40% 2 21.11.2026 -
Luis Ingolotti Atlético Tucumán Ativo 127 / 130 40% 3 20.11.2026 -
Mauro Arambarri River Plate Ativo 162 / 154 40% 2 18.11.2026 -
Themba Ngcobo SuperSport United Ativo 114 / 125 40% 3 17.11.2026 -
Nahuel Ulariaga Hapoel Beer Sheva Ativo 118 / 127 40% 1 17.11.2026 -
Santiago García Viitorul Ativo 81 / 80 40% 1 16.11.2026 -
Ramiro Ruiz Rodríguez Atlético Tucumán Ativo 129 / 116 40% 2 12.11.2026 -
Ola Brynhildsen Bodo/Glimt Ativo 123 / 138 40% 1 12.11.2026 -
Kévin Denkey FC Cincinnati Ativo 131 / 125 40% 2 11.11.2026 -
Tomás González Piast Ativo 123 / 123 40% 1 10.11.2026 -
Axel Pérez NK Domzale Ativo 97 / 90 40% 1 09.11.2026 -
Marlon Gomes Shakhtar Ativo 126 / 145 40% 1 08.11.2026 -
Scott McKenna Dinamo Zagreb Ativo 122 / 112 40% 1 08.11.2026 -
Alexandr Koryakin Krasnodar Ativo 117 / 114 40% 1 06.11.2026 -
Gift Ngcobo Ajax Cape Town Ativo 118 / 132 40% 3 05.11.2026 -
Mohamed Ali Ben Romdhane Al Ahly Ativo 119 / 112 40% 1 05.11.2026 -
David Brekalo Orlando City Ativo 128 / 135 40% 1 04.11.2026 -
Emanuel Mammana Vélez Ativo 134 / 127 40% 2 03.11.2026 -
Lukáš Červ Viktoria Plzen Ativo 134 / 147 40% 4 02.11.2026 -
Yves Bissouma Tottenham Ativo 150 / 143 40% 1 31.10.2026 -
Rúben Neves Al-Hilal Ativo 151 / 133 40% 1 30.10.2026 -
Conrad Wallem Austria Wien Ativo 129 / 134 40% 1 30.10.2026 -
Emil Breivik Molde Ativo 122 / 136 40% 1 30.10.2026 -
Alexander Díaz Deportivo Riestra Ativo 117 / 110 40% 1 29.10.2026 -
Kevin Paredes River Plate Ativo 134 / 127 40% 1 29.10.2026 -
Bryan Ramírez FC Cincinnati Ativo 129 / 127 40% 1 29.10.2026 -
Gonzalo Montiel River Plate Ativo 133 / 125 40% 1 27.10.2026 -
Samu Maccabi Netanya Ativo 116 / 98 40% 1 24.10.2026 -
Bento Al-Nassr Ativo 132 / 147 40% 1 24.10.2026 -
Josh Brownhill Al-Shabab Ativo 139 / 127 40% 2 23.10.2026 -
Lassina Traoré Shakhtar Ativo 122 / 108 40% 1 21.10.2026 -
Tomoki Hayakawa Kashima Antlers Ativo 150 / 131 40% 2 19.10.2026 -
Pontus Dahlberg Lillestrom Ativo 102 / 100 40% 1 19.10.2026 -
Ayrton Costa Boca Juniors Ativo 129 / 121 40% 2 18.10.2026 -
Mattia Zanotti Lugano Ativo 142 / 141 40% 1 18.10.2026 -
Roger Ibañez Al-Ahli Ativo 158 / 143 40% 1 16.10.2026 -
Riku Yamane Yokohama F. Marinos Ativo 144 / 139 40% 1 16.10.2026 -
Patrick Schulte Columbus Crew Ativo 115 / 122 40% 3 15.10.2026 -
Leopold Wahlstedt Rosenborg Ativo 109 / 112 40% 1 15.10.2026 -
Patrick Berg Bodo/Glimt Ativo 153 / 144 40% 1 14.10.2026 -
Théo Hernández Al-Hilal Ativo 143 / 143 40% 1 14.10.2026 -
Keaton Parks Helsingborg Ativo 120 / 135 40% 1 14.10.2026 -
Roman Celentano FC Cincinnati Ativo 113 / 122 40% 2 10.10.2026 -
Fabián Paris Saint-Germain Ativo 167 / 162 40% 1 10.10.2026 -
Mattéo Guendouzi Fenerbahce Ativo 140 / 141 40% 1 10.10.2026 -
Luka Gavran Toronto FC Ativo 115 / 107 40% 1 09.10.2026 -
Daniil Khudyakov Sturm Graz Ativo 130 / 110 40% 2 06.10.2026 -
Elías Rafn Ólafsson FC Midtjylland Ativo 112 / 110 40% 1 06.10.2026 -
CJ dos Santos San Diego Football Club Ativo 117 / 104 40% 1 06.10.2026 -
Rikuto Hirose Kashima Antlers Ativo 142 / 135 40% 1 05.10.2026 -
Aníbal Moreno River Plate Ativo 127 / 134 40% 1 05.10.2026 -
Bénie Traoré New York City Ativo 123 / 134 40% 1 04.10.2026 -
Niklas Steffen Thun Ativo 122 / 111 40% 1 23.09.2026 -
Maximiliano Rodríguez Huachipato Ativo 117 / 117 40% 1 23.09.2026 -
Sead Hakšabanović Malmo FF Ativo 108 / 109 40% 1 23.09.2026 -
Rafael Navarro St. Louis CITY SC Ativo 133 / 128 40% 1 21.09.2026 -
Elias Manoel Tijuana Ativo 117 / 108 40% 1 20.09.2026 -
Agustín Paz Progreso Ativo 109 / 116 40% 1 18.09.2026 -
Esteban da Silva Racing Ativo 115 / 110 40% 1 18.09.2026 -
Rodrigo Echeverría Leon Ativo 134 / 134 40% 1 14.09.2026 -
Ramón Juárez Club America Ativo 131 / 128 40% 1 14.09.2026 -
Santiago Silva CFR Cluj Ativo 105 / 134 40% 1 13.09.2026 -
Alejo Cruz Juventud Ativo 112 / 128 40% 1 11.09.2026 -
Facundo de León Progreso Ativo 112 / 111 40% 1 11.09.2026 -
Gerardo Arteaga Monterrey Ativo 135 / 131 40% 1 11.09.2026 -
Nahuel Tenaglia Tigres Ativo 140 / 126 40% 1 11.09.2026 -
Willer Ditta Cruz Azul Ativo 132 / 139 40% 2 10.09.2026 -
Ştefan Târnovanu FCSB Ativo 130 / 103 40% 1 09.09.2026 -
Diego Romero Universitario Ativo 118 / 130 40% 1 08.09.2026 -
Esteban Glellel Quilmes Ativo 123 / 114 40% 1 08.09.2026 -
Lukas Gütlbauer Wolfsberger AC Ativo 120 / 102 40% 1 03.09.2026 -
Lautaro Amadé Defensa y Justicia Ativo 110 / 122 40% 2 31.08.2026 -
Dominik Takáč Slovan Bratislava Ativo 124 / 111 40% 1 31.08.2026 -
Erick Reyes Toluca Ativo 134 / 133 40% 1 29.08.2026 -
Nicolás Sumavil Platense Ativo 123 / 112 40% 1 29.08.2026 -
John Pulskamp Sporting Kansas City Ativo 111 / 108 40% 1 29.08.2026 -
Tomás Durso Atlético Tucumán Ativo 111 / 110 40% 2 19.08.2026 -
Felipe Parra Envigado Ativo 116 / 124 40% 2 19.08.2026 -
Keisuke Osako Sanfrecce Hiroshima Ativo 138 / 126 40% 1 17.08.2026 -
Manuel Roffo Cerro Porteno Ativo 125 / 135 40% 1 17.08.2026 -
Matt Freese New York City Ativo 122 / 120 40% 2 12.08.2026 -
Lautaro Maldonado Instituto Ativo 106 / 118 40% 1 12.08.2026 -
James Cardona La Equidad Ativo 139 / 144 40% 1 05.08.2026 -
Adam Webster Brighton Ativo 135 / 155 40% 1 05.08.2026 -
Richard Ledezma Guadalajara Ativo 130 / 131 40% 1 04.08.2026 -
Timothy Castagne Fulham Ativo 124 / 128 40% 1 02.08.2026 -
Sebastián Cáceres Celta Ativo 129 / 128 40% 1 02.08.2026 -